sensor_id;sensor_type;location;lat;lon;timestamp;P1;durP1;ratioP1;P2;durP2;ratioP2
78889;SDS011;68279;48.964;14.502;2023-09-18T00:02:14;6.15;;;3.83;;
78889;SDS011;68279;48.964;14.502;2023-09-18T00:04:41;8.95;;;4.43;;
78889;SDS011;68279;48.964;14.502;2023-09-18T00:07:07;5.60;;;3.63;;
78889;SDS011;68279;48.964;14.502;2023-09-18T00:09:32;7.13;;;4.30;;
78889;SDS011;68279;48.964;14.502;2023-09-18T00:11:58;6.97;;;4.03;;
78889;SDS011;68279;48.964;14.502;2023-09-18T00:14:23;7.28;;;4.40;;
78889;SDS011;68279;48.964;14.502;2023-09-18T00:16:50;7.20;;;3.60;;
78889;SDS011;68279;48.964;14.502;2023-09-18T00:19:18;7.00;;;4.13;;
78889;SDS011;68279;48.964;14.502;2023-09-18T00:21:46;8.27;;;4.80;;
78889;SDS011;68279;48.964;14.502;2023-09-18T00:24:11;6.95;;;4.32;;
78889;SDS011;68279;48.964;14.502;2023-09-18T00:26:37;7.78;;;4.50;;
78889;SDS011;68279;48.964;14.502;2023-09-18T00:29:02;7.90;;;4.88;;
78889;SDS011;68279;48.964;14.502;2023-09-18T00:31:28;8.02;;;4.63;;
78889;SDS011;68279;48.964;14.502;2023-09-18T00:33:53;8.88;;;5.13;;
78889;SDS011;68279;48.964;14.502;2023-09-18T00:36:19;7.10;;;4.18;;
78889;SDS011;68279;48.964;14.502;2023-09-18T00:38:44;7.07;;;4.07;;
78889;SDS011;68279;48.964;14.502;2023-09-18T00:41:12;6.18;;;4.50;;
78889;SDS011;68279;48.964;14.502;2023-09-18T00:43:38;8.18;;;4.20;;
78889;SDS011;68279;48.964;14.502;2023-09-18T00:46:03;10.32;;;5.60;;
78889;SDS011;68279;48.964;14.502;2023-09-18T00:48:30;9.98;;;4.70;;
78889;SDS011;68279;48.964;14.502;2023-09-18T00:50:56;7.13;;;4.53;;
78889;SDS011;68279;48.964;14.502;2023-09-18T00:53:22;8.00;;;4.43;;
78889;SDS011;68279;48.964;14.502;2023-09-18T00:55:51;7.45;;;4.78;;
78889;SDS011;68279;48.964;14.502;2023-09-18T00:58:19;10.07;;;4.53;;
78889;SDS011;68279;48.964;14.502;2023-09-18T01:00:44;7.97;;;4.20;;
78889;SDS011;68279;48.964;14.502;2023-09-18T01:03:10;8.43;;;4.50;;
78889;SDS011;68279;48.964;14.502;2023-09-18T01:05:36;7.57;;;4.68;;
78889;SDS011;68279;48.964;14.502;2023-09-18T01:08:01;8.55;;;4.68;;
78889;SDS011;68279;48.964;14.502;2023-09-18T01:10:32;8.10;;;4.00;;
78889;SDS011;68279;48.964;14.502;2023-09-18T01:13:05;8.50;;;4.82;;
78889;SDS011;68279;48.964;14.502;2023-09-18T01:15:51;97.05;;;9.80;;
78889;SDS011;68279;48.964;14.502;2023-09-18T01:18:19;6.90;;;3.72;;
78889;SDS011;68279;48.964;14.502;2023-09-18T01:20:45;6.15;;;3.55;;
78889;SDS011;68279;48.964;14.502;2023-09-18T01:23:11;7.78;;;3.97;;
78889;SDS011;68279;48.964;14.502;2023-09-18T01:25:37;6.10;;;3.85;;
78889;SDS011;68279;48.964;14.502;2023-09-18T01:28:03;8.55;;;4.45;;
78889;SDS011;68279;48.964;14.502;2023-09-18T01:30:29;14.73;;;5.25;;
78889;SDS011;68279;48.964;14.502;2023-09-18T01:32:55;6.97;;;4.20;;
78889;SDS011;68279;48.964;14.502;2023-09-18T01:35:25;18.20;;;4.63;;
78889;SDS011;68279;48.964;14.502;2023-09-18T01:37:56;32.50;;;5.20;;
78889;SDS011;68279;48.964;14.502;2023-09-18T01:40:24;30.27;;;4.95;;
78889;SDS011;68279;48.964;14.502;2023-09-18T01:42:50;45.85;;;6.53;;
78889;SDS011;68279;48.964;14.502;2023-09-18T01:45:17;8.95;;;4.32;;
78889;SDS011;68279;48.964;14.502;2023-09-18T01:47:43;7.40;;;4.38;;
78889;SDS011;68279;48.964;14.502;2023-09-18T01:50:09;9.00;;;4.45;;
78889;SDS011;68279;48.964;14.502;2023-09-18T01:52:41;7.72;;;4.43;;
78889;SDS011;68279;48.964;14.502;2023-09-18T01:55:06;7.95;;;4.32;;
78889;SDS011;68279;48.964;14.502;2023-09-18T01:57:32;8.23;;;4.90;;
78889;SDS011;68279;48.964;14.502;2023-09-18T01:59:58;8.02;;;4.40;;
78889;SDS011;68279;48.964;14.502;2023-09-18T02:02:24;10.93;;;5.50;;
78889;SDS011;68279;48.964;14.502;2023-09-18T02:04:49;10.43;;;4.53;;
78889;SDS011;68279;48.964;14.502;2023-09-18T02:07:16;10.05;;;4.78;;
78889;SDS011;68279;48.964;14.502;2023-09-18T02:09:41;9.20;;;4.82;;
78889;SDS011;68279;48.964;14.502;2023-09-18T02:12:08;7.22;;;4.57;;
78889;SDS011;68279;48.964;14.502;2023-09-18T02:14:33;8.68;;;5.05;;
78889;SDS011;68279;48.964;14.502;2023-09-18T02:16:59;7.47;;;4.60;;
78889;SDS011;68279;48.964;14.502;2023-09-18T02:19:25;7.32;;;4.25;;
78889;SDS011;68279;48.964;14.502;2023-09-18T02:21:55;7.82;;;4.40;;
78889;SDS011;68279;48.964;14.502;2023-09-18T02:24:21;9.40;;;4.68;;
78889;SDS011;68279;48.964;14.502;2023-09-18T02:26:48;8.77;;;4.32;;
78889;SDS011;68279;48.964;14.502;2023-09-18T02:29:14;7.95;;;3.92;;
78889;SDS011;68279;48.964;14.502;2023-09-18T02:31:40;8.13;;;4.32;;
78889;SDS011;68279;48.964;14.502;2023-09-18T02:34:05;12.88;;;5.32;;
78889;SDS011;68279;48.964;14.502;2023-09-18T02:36:32;10.35;;;5.35;;
78889;SDS011;68279;48.964;14.502;2023-09-18T02:38:58;8.15;;;5.30;;
78889;SDS011;68279;48.964;14.502;2023-09-18T02:41:24;10.13;;;5.25;;
78889;SDS011;68279;48.964;14.502;2023-09-18T02:43:50;7.60;;;4.63;;
78889;SDS011;68279;48.964;14.502;2023-09-18T02:46:16;8.23;;;4.20;;
78889;SDS011;68279;48.964;14.502;2023-09-18T02:48:41;11.85;;;5.38;;
78889;SDS011;68279;48.964;14.502;2023-09-18T02:51:07;9.98;;;4.85;;
78889;SDS011;68279;48.964;14.502;2023-09-18T02:53:33;13.23;;;5.03;;
78889;SDS011;68279;48.964;14.502;2023-09-18T02:56:00;10.00;;;4.93;;
78889;SDS011;68279;48.964;14.502;2023-09-18T02:58:34;10.43;;;5.03;;
78889;SDS011;68279;48.964;14.502;2023-09-18T03:03:31;10.10;;;4.47;;
78889;SDS011;68279;48.964;14.502;2023-09-18T03:08:29;8.85;;;4.57;;
78889;SDS011;68279;48.964;14.502;2023-09-18T03:10:56;9.43;;;5.13;;
78889;SDS011;68279;48.964;14.502;2023-09-18T03:13:22;9.45;;;5.72;;
78889;SDS011;68279;48.964;14.502;2023-09-18T03:15:48;9.57;;;4.57;;
78889;SDS011;68279;48.964;14.502;2023-09-18T03:18:14;9.38;;;5.30;;
78889;SDS011;68279;48.964;14.502;2023-09-18T03:20:40;8.65;;;4.30;;
78889;SDS011;68279;48.964;14.502;2023-09-18T03:23:07;10.05;;;4.78;;
78889;SDS011;68279;48.964;14.502;2023-09-18T03:25:33;8.98;;;5.07;;
78889;SDS011;68279;48.964;14.502;2023-09-18T03:27:58;11.00;;;5.80;;
78889;SDS011;68279;48.964;14.502;2023-09-18T03:30:25;10.02;;;5.22;;
78889;SDS011;68279;48.964;14.502;2023-09-18T03:32:51;10.25;;;4.88;;
78889;SDS011;68279;48.964;14.502;2023-09-18T03:35:17;11.35;;;6.40;;
78889;SDS011;68279;48.964;14.502;2023-09-18T03:37:44;8.95;;;4.93;;
78889;SDS011;68279;48.964;14.502;2023-09-18T03:40:11;8.35;;;5.18;;
78889;SDS011;68279;48.964;14.502;2023-09-18T03:42:36;11.52;;;6.30;;
78889;SDS011;68279;48.964;14.502;2023-09-18T03:45:02;9.07;;;4.65;;
78889;SDS011;68279;48.964;14.502;2023-09-18T03:47:28;8.07;;;5.20;;
78889;SDS011;68279;48.964;14.502;2023-09-18T03:49:54;11.13;;;5.63;;
78889;SDS011;68279;48.964;14.502;2023-09-18T03:52:19;6.85;;;4.82;;
78889;SDS011;68279;48.964;14.502;2023-09-18T03:54:45;8.07;;;5.10;;
78889;SDS011;68279;48.964;14.502;2023-09-18T03:57:10;8.30;;;4.38;;
78889;SDS011;68279;48.964;14.502;2023-09-18T03:59:36;8.80;;;4.57;;
78889;SDS011;68279;48.964;14.502;2023-09-18T04:02:02;8.40;;;4.80;;
78889;SDS011;68279;48.964;14.502;2023-09-18T04:04:29;19.15;;;5.65;;
78889;SDS011;68279;48.964;14.502;2023-09-18T04:06:55;10.23;;;4.18;;
78889;SDS011;68279;48.964;14.502;2023-09-18T04:09:20;86.15;;;10.38;;
78889;SDS011;68279;48.964;14.502;2023-09-18T04:11:46;64.82;;;7.68;;
78889;SDS011;68279;48.964;14.502;2023-09-18T04:14:12;7.43;;;4.13;;
78889;SDS011;68279;48.964;14.502;2023-09-18T04:16:37;15.45;;;4.70;;
78889;SDS011;68279;48.964;14.502;2023-09-18T04:19:05;7.93;;;4.20;;
78889;SDS011;68279;48.964;14.502;2023-09-18T04:21:32;9.68;;;5.18;;
78889;SDS011;68279;48.964;14.502;2023-09-18T04:23:57;10.20;;;5.25;;
78889;SDS011;68279;48.964;14.502;2023-09-18T04:26:24;10.05;;;4.97;;
78889;SDS011;68279;48.964;14.502;2023-09-18T04:28:55;10.07;;;5.50;;
78889;SDS011;68279;48.964;14.502;2023-09-18T04:31:21;9.20;;;5.60;;
78889;SDS011;68279;48.964;14.502;2023-09-18T04:33:46;10.10;;;5.20;;
78889;SDS011;68279;48.964;14.502;2023-09-18T04:36:12;10.68;;;5.78;;
78889;SDS011;68279;48.964;14.502;2023-09-18T04:38:39;10.05;;;6.00;;
78889;SDS011;68279;48.964;14.502;2023-09-18T04:41:05;11.20;;;5.60;;
78889;SDS011;68279;48.964;14.502;2023-09-18T04:43:35;10.15;;;6.20;;
78889;SDS011;68279;48.964;14.502;2023-09-18T04:46:01;11.05;;;5.38;;
78889;SDS011;68279;48.964;14.502;2023-09-18T04:48:32;10.88;;;5.38;;
78889;SDS011;68279;48.964;14.502;2023-09-18T04:50:58;9.00;;;5.15;;
78889;SDS011;68279;48.964;14.502;2023-09-18T04:53:25;10.30;;;4.82;;
78889;SDS011;68279;48.964;14.502;2023-09-18T04:55:54;10.23;;;5.68;;
78889;SDS011;68279;48.964;14.502;2023-09-18T04:58:20;14.95;;;6.40;;
78889;SDS011;68279;48.964;14.502;2023-09-18T05:00:55;17.05;;;7.65;;
78889;SDS011;68279;48.964;14.502;2023-09-18T05:03:24;15.02;;;7.43;;
78889;SDS011;68279;48.964;14.502;2023-09-18T05:05:50;21.40;;;6.63;;
78889;SDS011;68279;48.964;14.502;2023-09-18T05:08:15;18.65;;;7.40;;
78889;SDS011;68279;48.964;14.502;2023-09-18T05:10:41;17.05;;;8.45;;
78889;SDS011;68279;48.964;14.502;2023-09-18T05:13:08;26.23;;;10.18;;
78889;SDS011;68279;48.964;14.502;2023-09-18T05:15:36;19.98;;;8.63;;
78889;SDS011;68279;48.964;14.502;2023-09-18T05:18:02;17.75;;;7.63;;
78889;SDS011;68279;48.964;14.502;2023-09-18T05:20:29;14.35;;;7.68;;
78889;SDS011;68279;48.964;14.502;2023-09-18T05:22:56;15.18;;;7.28;;
78889;SDS011;68279;48.964;14.502;2023-09-18T05:25:24;18.92;;;8.45;;
78889;SDS011;68279;48.964;14.502;2023-09-18T05:27:51;17.33;;;8.30;;
78889;SDS011;68279;48.964;14.502;2023-09-18T05:30:28;15.40;;;7.50;;
78889;SDS011;68279;48.964;14.502;2023-09-18T05:32:59;16.00;;;8.27;;
78889;SDS011;68279;48.964;14.502;2023-09-18T05:35:30;18.73;;;7.60;;
78889;SDS011;68279;48.964;14.502;2023-09-18T05:38:00;15.93;;;8.15;;
78889;SDS011;68279;48.964;14.502;2023-09-18T05:40:25;15.55;;;8.82;;
78889;SDS011;68279;48.964;14.502;2023-09-18T05:42:56;16.75;;;7.45;;
78889;SDS011;68279;48.964;14.502;2023-09-18T05:45:23;16.33;;;8.35;;
78889;SDS011;68279;48.964;14.502;2023-09-18T05:47:49;14.35;;;7.38;;
78889;SDS011;68279;48.964;14.502;2023-09-18T05:50:16;11.70;;;6.53;;
78889;SDS011;68279;48.964;14.502;2023-09-18T05:52:43;16.33;;;7.93;;
78889;SDS011;68279;48.964;14.502;2023-09-18T05:55:12;15.50;;;7.57;;
78889;SDS011;68279;48.964;14.502;2023-09-18T05:57:41;16.63;;;8.43;;
78889;SDS011;68279;48.964;14.502;2023-09-18T06:00:08;14.65;;;7.60;;
78889;SDS011;68279;48.964;14.502;2023-09-18T06:02:38;15.55;;;8.25;;
78889;SDS011;68279;48.964;14.502;2023-09-18T06:05:05;15.68;;;8.70;;
78889;SDS011;68279;48.964;14.502;2023-09-18T06:07:32;14.45;;;7.43;;
78889;SDS011;68279;48.964;14.502;2023-09-18T06:09:58;13.30;;;7.78;;
78889;SDS011;68279;48.964;14.502;2023-09-18T06:12:24;12.40;;;7.30;;
78889;SDS011;68279;48.964;14.502;2023-09-18T06:14:51;12.32;;;7.70;;
78889;SDS011;68279;48.964;14.502;2023-09-18T06:17:17;13.73;;;7.70;;
78889;SDS011;68279;48.964;14.502;2023-09-18T06:19:43;12.07;;;7.28;;
78889;SDS011;68279;48.964;14.502;2023-09-18T06:22:09;11.48;;;6.40;;
78889;SDS011;68279;48.964;14.502;2023-09-18T06:24:36;13.45;;;7.22;;
78889;SDS011;68279;48.964;14.502;2023-09-18T06:27:02;14.43;;;7.80;;
78889;SDS011;68279;48.964;14.502;2023-09-18T06:29:29;11.65;;;7.03;;
78889;SDS011;68279;48.964;14.502;2023-09-18T06:31:55;14.15;;;6.78;;
78889;SDS011;68279;48.964;14.502;2023-09-18T06:34:21;11.18;;;6.35;;
78889;SDS011;68279;48.964;14.502;2023-09-18T06:36:47;11.18;;;6.35;;
78889;SDS011;68279;48.964;14.502;2023-09-18T06:39:12;10.93;;;6.15;;
78889;SDS011;68279;48.964;14.502;2023-09-18T06:41:38;11.00;;;6.70;;
78889;SDS011;68279;48.964;14.502;2023-09-18T06:44:04;11.32;;;6.78;;
78889;SDS011;68279;48.964;14.502;2023-09-18T06:46:30;11.45;;;7.05;;
78889;SDS011;68279;48.964;14.502;2023-09-18T06:48:56;13.77;;;7.43;;
78889;SDS011;68279;48.964;14.502;2023-09-18T06:51:25;11.90;;;6.50;;
78889;SDS011;68279;48.964;14.502;2023-09-18T06:53:53;10.35;;;6.30;;
78889;SDS011;68279;48.964;14.502;2023-09-18T06:56:19;9.18;;;5.90;;
78889;SDS011;68279;48.964;14.502;2023-09-18T06:58:45;9.70;;;6.15;;
78889;SDS011;68279;48.964;14.502;2023-09-18T07:01:13;8.93;;;6.40;;
78889;SDS011;68279;48.964;14.502;2023-09-18T07:03:40;8.40;;;5.53;;
78889;SDS011;68279;48.964;14.502;2023-09-18T07:06:06;7.43;;;5.00;;
78889;SDS011;68279;48.964;14.502;2023-09-18T07:08:31;8.75;;;5.63;;
78889;SDS011;68279;48.964;14.502;2023-09-18T07:10:58;9.68;;;5.95;;
78889;SDS011;68279;48.964;14.502;2023-09-18T07:13:24;8.63;;;4.70;;
78889;SDS011;68279;48.964;14.502;2023-09-18T07:15:50;11.65;;;5.78;;
78889;SDS011;68279;48.964;14.502;2023-09-18T07:18:15;10.80;;;5.30;;
78889;SDS011;68279;48.964;14.502;2023-09-18T07:20:41;8.23;;;5.38;;
78889;SDS011;68279;48.964;14.502;2023-09-18T07:23:08;7.32;;;4.95;;
78889;SDS011;68279;48.964;14.502;2023-09-18T07:25:34;8.55;;;5.43;;
78889;SDS011;68279;48.964;14.502;2023-09-18T07:28:00;9.38;;;5.70;;
78889;SDS011;68279;48.964;14.502;2023-09-18T07:30:25;8.85;;;5.28;;
78889;SDS011;68279;48.964;14.502;2023-09-18T07:32:54;10.13;;;5.72;;
78889;SDS011;68279;48.964;14.502;2023-09-18T07:37:51;10.13;;;5.85;;
78889;SDS011;68279;48.964;14.502;2023-09-18T07:40:17;8.55;;;5.35;;
78889;SDS011;68279;48.964;14.502;2023-09-18T07:42:43;12.73;;;5.70;;
78889;SDS011;68279;48.964;14.502;2023-09-18T07:45:15;7.03;;;4.88;;
78889;SDS011;68279;48.964;14.502;2023-09-18T07:47:42;6.95;;;4.80;;
78889;SDS011;68279;48.964;14.502;2023-09-18T07:50:08;8.13;;;5.03;;
78889;SDS011;68279;48.964;14.502;2023-09-18T07:52:34;7.32;;;4.63;;
78889;SDS011;68279;48.964;14.502;2023-09-18T07:54:59;7.63;;;4.57;;
78889;SDS011;68279;48.964;14.502;2023-09-18T07:57:25;7.13;;;4.65;;
78889;SDS011;68279;48.964;14.502;2023-09-18T07:59:53;8.57;;;5.10;;
78889;SDS011;68279;48.964;14.502;2023-09-18T08:02:19;7.50;;;4.47;;
78889;SDS011;68279;48.964;14.502;2023-09-18T08:04:46;8.02;;;5.28;;
78889;SDS011;68279;48.964;14.502;2023-09-18T08:07:12;7.32;;;4.60;;
78889;SDS011;68279;48.964;14.502;2023-09-18T08:09:38;6.45;;;4.20;;
78889;SDS011;68279;48.964;14.502;2023-09-18T08:12:04;5.97;;;4.05;;
78889;SDS011;68279;48.964;14.502;2023-09-18T08:14:31;6.55;;;4.38;;
78889;SDS011;68279;48.964;14.502;2023-09-18T08:17:00;6.60;;;4.50;;
78889;SDS011;68279;48.964;14.502;2023-09-18T08:19:26;8.70;;;5.07;;
78889;SDS011;68279;48.964;14.502;2023-09-18T08:21:55;6.80;;;5.15;;
78889;SDS011;68279;48.964;14.502;2023-09-18T08:24:25;7.20;;;5.25;;
78889;SDS011;68279;48.964;14.502;2023-09-18T08:26:50;9.68;;;5.60;;
78889;SDS011;68279;48.964;14.502;2023-09-18T08:29:16;8.68;;;5.32;;
78889;SDS011;68279;48.964;14.502;2023-09-18T08:31:44;8.18;;;4.85;;
78889;SDS011;68279;48.964;14.502;2023-09-18T08:34:10;7.50;;;5.07;;
78889;SDS011;68279;48.964;14.502;2023-09-18T08:36:36;9.25;;;5.25;;
78889;SDS011;68279;48.964;14.502;2023-09-18T08:39:01;7.90;;;5.40;;
78889;SDS011;68279;48.964;14.502;2023-09-18T08:41:31;7.80;;;5.30;;
78889;SDS011;68279;48.964;14.502;2023-09-18T08:44:01;7.75;;;4.90;;
78889;SDS011;68279;48.964;14.502;2023-09-18T08:46:29;7.68;;;4.50;;
78889;SDS011;68279;48.964;14.502;2023-09-18T08:48:59;9.18;;;5.47;;
78889;SDS011;68279;48.964;14.502;2023-09-18T08:51:26;6.88;;;4.78;;
78889;SDS011;68279;48.964;14.502;2023-09-18T08:53:54;7.45;;;5.05;;
78889;SDS011;68279;48.964;14.502;2023-09-18T08:56:20;8.00;;;5.40;;
78889;SDS011;68279;48.964;14.502;2023-09-18T08:58:47;8.02;;;5.15;;
78889;SDS011;68279;48.964;14.502;2023-09-18T09:01:13;9.32;;;5.65;;
78889;SDS011;68279;48.964;14.502;2023-09-18T09:03:39;9.93;;;5.75;;
78889;SDS011;68279;48.964;14.502;2023-09-18T09:06:06;7.47;;;5.35;;
78889;SDS011;68279;48.964;14.502;2023-09-18T09:08:33;9.07;;;5.55;;
78889;SDS011;68279;48.964;14.502;2023-09-18T09:10:59;9.05;;;5.28;;
78889;SDS011;68279;48.964;14.502;2023-09-18T09:13:25;7.78;;;5.28;;
78889;SDS011;68279;48.964;14.502;2023-09-18T09:15:52;7.65;;;5.22;;
78889;SDS011;68279;48.964;14.502;2023-09-18T09:18:23;7.47;;;5.20;;
78889;SDS011;68279;48.964;14.502;2023-09-18T09:20:56;7.70;;;5.13;;
78889;SDS011;68279;48.964;14.502;2023-09-18T09:23:24;7.32;;;4.93;;
78889;SDS011;68279;48.964;14.502;2023-09-18T09:26:00;8.65;;;4.97;;
78889;SDS011;68279;48.964;14.502;2023-09-18T09:28:38;6.40;;;5.03;;
78889;SDS011;68279;48.964;14.502;2023-09-18T09:31:04;6.90;;;4.47;;
78889;SDS011;68279;48.964;14.502;2023-09-18T09:33:31;7.47;;;5.13;;
78889;SDS011;68279;48.964;14.502;2023-09-18T09:35:58;7.85;;;4.40;;
78889;SDS011;68279;48.964;14.502;2023-09-18T09:38:30;6.82;;;4.68;;
78889;SDS011;68279;48.964;14.502;2023-09-18T09:40:58;7.85;;;4.85;;
78889;SDS011;68279;48.964;14.502;2023-09-18T09:43:27;7.72;;;5.32;;
78889;SDS011;68279;48.964;14.502;2023-09-18T09:45:59;7.22;;;5.00;;
78889;SDS011;68279;48.964;14.502;2023-09-18T09:48:25;8.15;;;5.05;;
78889;SDS011;68279;48.964;14.502;2023-09-18T09:50:51;7.30;;;4.90;;
78889;SDS011;68279;48.964;14.502;2023-09-18T09:53:43;6.93;;;4.72;;
78889;SDS011;68279;48.964;14.502;2023-09-18T09:56:20;6.93;;;4.88;;
78889;SDS011;68279;48.964;14.502;2023-09-18T09:59:00;7.88;;;5.03;;
78889;SDS011;68279;48.964;14.502;2023-09-18T10:04:07;7.07;;;4.82;;
78889;SDS011;68279;48.964;14.502;2023-09-18T10:06:35;6.47;;;4.65;;
78889;SDS011;68279;48.964;14.502;2023-09-18T10:09:02;7.70;;;4.75;;
78889;SDS011;68279;48.964;14.502;2023-09-18T10:11:31;7.07;;;4.90;;
78889;SDS011;68279;48.964;14.502;2023-09-18T10:14:28;6.32;;;4.75;;
78889;SDS011;68279;48.964;14.502;2023-09-18T10:16:54;7.20;;;4.78;;
78889;SDS011;68279;48.964;14.502;2023-09-18T10:24:36;7.40;;;4.57;;
78889;SDS011;68279;48.964;14.502;2023-09-18T10:27:03;6.13;;;4.00;;
78889;SDS011;68279;48.964;14.502;2023-09-18T10:29:32;6.78;;;4.30;;
78889;SDS011;68279;48.964;14.502;2023-09-18T10:32:01;6.65;;;4.68;;
78889;SDS011;68279;48.964;14.502;2023-09-18T10:34:31;7.80;;;4.55;;
78889;SDS011;68279;48.964;14.502;2023-09-18T10:36:59;8.13;;;4.82;;
78889;SDS011;68279;48.964;14.502;2023-09-18T10:39:30;6.22;;;4.57;;
78889;SDS011;68279;48.964;14.502;2023-09-18T10:41:57;6.63;;;4.90;;
78889;SDS011;68279;48.964;14.502;2023-09-18T10:44:28;7.70;;;4.38;;
78889;SDS011;68279;48.964;14.502;2023-09-18T10:46:53;6.97;;;4.53;;
78889;SDS011;68279;48.964;14.502;2023-09-18T10:49:21;9.88;;;5.45;;
78889;SDS011;68279;48.964;14.502;2023-09-18T10:51:47;5.90;;;4.57;;
78889;SDS011;68279;48.964;14.502;2023-09-18T10:54:17;5.38;;;4.38;;
78889;SDS011;68279;48.964;14.502;2023-09-18T10:56:46;7.00;;;4.43;;
78889;SDS011;68279;48.964;14.502;2023-09-18T10:59:14;7.78;;;4.78;;
78889;SDS011;68279;48.964;14.502;2023-09-18T11:01:41;7.30;;;5.38;;
78889;SDS011;68279;48.964;14.502;2023-09-18T11:09:20;7.30;;;5.82;;
78889;SDS011;68279;48.964;14.502;2023-09-18T11:11:52;6.75;;;5.47;;
78889;SDS011;68279;48.964;14.502;2023-09-18T11:17:39;6.40;;;4.68;;
78889;SDS011;68279;48.964;14.502;2023-09-18T11:20:06;7.45;;;4.65;;
78889;SDS011;68279;48.964;14.502;2023-09-18T11:22:38;6.00;;;4.28;;
78889;SDS011;68279;48.964;14.502;2023-09-18T11:27:56;7.20;;;4.90;;
78889;SDS011;68279;48.964;14.502;2023-09-18T11:30:22;7.25;;;4.50;;
78889;SDS011;68279;48.964;14.502;2023-09-18T11:32:49;7.15;;;4.70;;
78889;SDS011;68279;48.964;14.502;2023-09-18T11:35:15;7.88;;;4.90;;
78889;SDS011;68279;48.964;14.502;2023-09-18T11:37:43;6.85;;;4.93;;
78889;SDS011;68279;48.964;14.502;2023-09-18T11:40:29;6.72;;;5.35;;
78889;SDS011;68279;48.964;14.502;2023-09-18T11:45:52;6.72;;;4.40;;
78889;SDS011;68279;48.964;14.502;2023-09-18T11:48:20;5.93;;;4.72;;
78889;SDS011;68279;48.964;14.502;2023-09-18T11:50:49;6.85;;;5.38;;
78889;SDS011;68279;48.964;14.502;2023-09-18T11:55:47;7.68;;;5.00;;
78889;SDS011;68279;48.964;14.502;2023-09-18T11:58:13;6.57;;;4.50;;
78889;SDS011;68279;48.964;14.502;2023-09-18T12:00:38;6.13;;;4.70;;
78889;SDS011;68279;48.964;14.502;2023-09-18T12:03:17;6.28;;;4.38;;
78889;SDS011;68279;48.964;14.502;2023-09-18T12:05:52;6.82;;;4.55;;
78889;SDS011;68279;48.964;14.502;2023-09-18T12:08:30;6.93;;;4.78;;
78889;SDS011;68279;48.964;14.502;2023-09-18T12:10:57;6.15;;;4.63;;
78889;SDS011;68279;48.964;14.502;2023-09-18T12:13:26;6.93;;;4.95;;
78889;SDS011;68279;48.964;14.502;2023-09-18T12:15:56;5.97;;;4.55;;
78889;SDS011;68279;48.964;14.502;2023-09-18T12:18:33;7.45;;;5.10;;
78889;SDS011;68279;48.964;14.502;2023-09-18T12:21:05;7.30;;;4.93;;
78889;SDS011;68279;48.964;14.502;2023-09-18T12:23:41;6.05;;;4.65;;
78889;SDS011;68279;48.964;14.502;2023-09-18T12:26:10;5.75;;;4.53;;
78889;SDS011;68279;48.964;14.502;2023-09-18T12:28:38;6.45;;;5.00;;
78889;SDS011;68279;48.964;14.502;2023-09-18T12:31:06;9.40;;;5.75;;
78889;SDS011;68279;48.964;14.502;2023-09-18T12:33:35;6.63;;;4.65;;
78889;SDS011;68279;48.964;14.502;2023-09-18T12:36:05;5.82;;;4.85;;
78889;SDS011;68279;48.964;14.502;2023-09-18T12:38:31;7.63;;;5.43;;
78889;SDS011;68279;48.964;14.502;2023-09-18T12:40:58;6.70;;;4.72;;
78889;SDS011;68279;48.964;14.502;2023-09-18T12:43:41;8.27;;;4.65;;
78889;SDS011;68279;48.964;14.502;2023-09-18T12:46:07;6.55;;;4.68;;
78889;SDS011;68279;48.964;14.502;2023-09-18T12:48:40;6.13;;;5.53;;
78889;SDS011;68279;48.964;14.502;2023-09-18T12:51:11;6.05;;;4.38;;
78889;SDS011;68279;48.964;14.502;2023-09-18T12:53:37;5.85;;;4.68;;
78889;SDS011;68279;48.964;14.502;2023-09-18T12:56:07;6.65;;;4.88;;
78889;SDS011;68279;48.964;14.502;2023-09-18T12:58:37;6.65;;;4.80;;
78889;SDS011;68279;48.964;14.502;2023-09-18T13:01:05;7.20;;;5.10;;
78889;SDS011;68279;48.964;14.502;2023-09-18T13:03:33;6.95;;;4.30;;
78889;SDS011;68279;48.964;14.502;2023-09-18T13:06:14;7.00;;;4.32;;
78889;SDS011;68279;48.964;14.502;2023-09-18T13:08:45;6.75;;;4.40;;
78889;SDS011;68279;48.964;14.502;2023-09-18T13:11:12;7.65;;;4.88;;
78889;SDS011;68279;48.964;14.502;2023-09-18T13:13:41;5.43;;;4.43;;
78889;SDS011;68279;48.964;14.502;2023-09-18T13:16:09;6.68;;;4.80;;
78889;SDS011;68279;48.964;14.502;2023-09-18T13:18:35;7.63;;;4.97;;
78889;SDS011;68279;48.964;14.502;2023-09-18T13:21:12;6.55;;;5.05;;
78889;SDS011;68279;48.964;14.502;2023-09-18T13:23:41;6.95;;;4.90;;
78889;SDS011;68279;48.964;14.502;2023-09-18T13:26:07;7.25;;;5.05;;
78889;SDS011;68279;48.964;14.502;2023-09-18T13:28:33;6.13;;;4.72;;
78889;SDS011;68279;48.964;14.502;2023-09-18T13:31:01;6.65;;;5.00;;
78889;SDS011;68279;48.964;14.502;2023-09-18T13:33:30;6.88;;;4.78;;
78889;SDS011;68279;48.964;14.502;2023-09-18T13:36:05;5.55;;;4.55;;
78889;SDS011;68279;48.964;14.502;2023-09-18T13:38:32;6.63;;;4.90;;
78889;SDS011;68279;48.964;14.502;2023-09-18T13:40:59;7.32;;;4.63;;
78889;SDS011;68279;48.964;14.502;2023-09-18T13:43:25;6.47;;;4.38;;
78889;SDS011;68279;48.964;14.502;2023-09-18T13:45:53;6.50;;;4.32;;
78889;SDS011;68279;48.964;14.502;2023-09-18T13:48:21;6.90;;;4.80;;
78889;SDS011;68279;48.964;14.502;2023-09-18T13:50:48;6.32;;;3.88;;
78889;SDS011;68279;48.964;14.502;2023-09-18T13:53:14;5.53;;;4.30;;
78889;SDS011;68279;48.964;14.502;2023-09-18T13:55:40;9.15;;;4.90;;
78889;SDS011;68279;48.964;14.502;2023-09-18T13:58:06;6.32;;;4.13;;
78889;SDS011;68279;48.964;14.502;2023-09-18T14:00:31;7.32;;;5.43;;
78889;SDS011;68279;48.964;14.502;2023-09-18T14:03:03;5.45;;;4.05;;
78889;SDS011;68279;48.964;14.502;2023-09-18T14:05:31;5.13;;;3.88;;
78889;SDS011;68279;48.964;14.502;2023-09-18T14:08:01;6.30;;;4.72;;
78889;SDS011;68279;48.964;14.502;2023-09-18T14:10:29;7.07;;;4.10;;
78889;SDS011;68279;48.964;14.502;2023-09-18T14:12:55;5.50;;;3.83;;
78889;SDS011;68279;48.964;14.502;2023-09-18T14:15:30;6.38;;;3.92;;
78889;SDS011;68279;48.964;14.502;2023-09-18T14:17:55;5.55;;;3.90;;
78889;SDS011;68279;48.964;14.502;2023-09-18T14:20:25;5.75;;;4.18;;
78889;SDS011;68279;48.964;14.502;2023-09-18T14:22:50;5.38;;;4.25;;
78889;SDS011;68279;48.964;14.502;2023-09-18T14:25:23;6.25;;;4.28;;
78889;SDS011;68279;48.964;14.502;2023-09-18T14:27:50;5.28;;;3.85;;
78889;SDS011;68279;48.964;14.502;2023-09-18T14:30:16;5.07;;;3.50;;
78889;SDS011;68279;48.964;14.502;2023-09-18T14:32:43;6.03;;;4.82;;
78889;SDS011;68279;48.964;14.502;2023-09-18T14:35:09;5.93;;;4.03;;
78889;SDS011;68279;48.964;14.502;2023-09-18T14:37:37;5.53;;;3.88;;
78889;SDS011;68279;48.964;14.502;2023-09-18T14:40:04;6.35;;;3.85;;
78889;SDS011;68279;48.964;14.502;2023-09-18T14:42:29;5.82;;;3.53;;
78889;SDS011;68279;48.964;14.502;2023-09-18T14:44:57;7.55;;;3.88;;
78889;SDS011;68279;48.964;14.502;2023-09-18T14:47:23;7.57;;;3.83;;
78889;SDS011;68279;48.964;14.502;2023-09-18T14:49:49;6.22;;;3.63;;
78889;SDS011;68279;48.964;14.502;2023-09-18T14:52:15;5.47;;;3.97;;
78889;SDS011;68279;48.964;14.502;2023-09-18T14:54:46;7.55;;;4.20;;
78889;SDS011;68279;48.964;14.502;2023-09-18T14:57:12;6.97;;;3.75;;
78889;SDS011;68279;48.964;14.502;2023-09-18T14:59:38;6.97;;;4.22;;
78889;SDS011;68279;48.964;14.502;2023-09-18T15:02:12;5.70;;;3.95;;
78889;SDS011;68279;48.964;14.502;2023-09-18T15:04:40;8.05;;;4.57;;
78889;SDS011;68279;48.964;14.502;2023-09-18T15:07:22;6.65;;;4.25;;